sensor_id;sensor_type;location;lat;lon;timestamp;P1;durP1;ratioP1;P2;durP2;ratioP2
5900;SDS011;2976;49.764;9.796;2022-08-19T00:00:20;34.07;;;23.30;;
5900;SDS011;2976;49.764;9.796;2022-08-19T00:02:45;33.33;;;22.13;;
5900;SDS011;2976;49.764;9.796;2022-08-19T00:05:12;32.77;;;22.17;;
5900;SDS011;2976;49.764;9.796;2022-08-19T00:07:38;33.67;;;22.90;;
5900;SDS011;2976;49.764;9.796;2022-08-19T00:10:05;32.30;;;22.83;;
5900;SDS011;2976;49.764;9.796;2022-08-19T00:12:32;33.40;;;23.10;;
5900;SDS011;2976;49.764;9.796;2022-08-19T00:14:58;34.63;;;21.67;;
5900;SDS011;2976;49.764;9.796;2022-08-19T00:17:24;31.07;;;21.40;;
5900;SDS011;2976;49.764;9.796;2022-08-19T00:19:50;34.63;;;22.70;;
5900;SDS011;2976;49.764;9.796;2022-08-19T00:22:16;38.07;;;23.60;;
5900;SDS011;2976;49.764;9.796;2022-08-19T00:24:43;35.97;;;23.60;;
5900;SDS011;2976;49.764;9.796;2022-08-19T00:27:10;29.90;;;22.10;;
5900;SDS011;2976;49.764;9.796;2022-08-19T00:29:36;32.97;;;23.27;;
5900;SDS011;2976;49.764;9.796;2022-08-19T00:32:02;35.63;;;23.20;;
5900;SDS011;2976;49.764;9.796;2022-08-19T00:34:27;34.83;;;23.17;;
5900;SDS011;2976;49.764;9.796;2022-08-19T00:36:54;33.70;;;21.70;;
5900;SDS011;2976;49.764;9.796;2022-08-19T00:39:20;32.10;;;21.50;;
5900;SDS011;2976;49.764;9.796;2022-08-19T00:41:46;32.43;;;23.80;;
5900;SDS011;2976;49.764;9.796;2022-08-19T00:44:15;33.33;;;22.30;;
5900;SDS011;2976;49.764;9.796;2022-08-19T00:46:47;29.33;;;20.97;;
5900;SDS011;2976;49.764;9.796;2022-08-19T00:49:15;33.27;;;22.30;;
5900;SDS011;2976;49.764;9.796;2022-08-19T00:51:52;35.80;;;23.53;;
5900;SDS011;2976;49.764;9.796;2022-08-19T00:54:22;35.53;;;23.50;;
5900;SDS011;2976;49.764;9.796;2022-08-19T00:56:48;32.90;;;22.43;;
5900;SDS011;2976;49.764;9.796;2022-08-19T00:59:15;32.47;;;22.53;;
5900;SDS011;2976;49.764;9.796;2022-08-19T01:01:42;37.00;;;22.07;;
5900;SDS011;2976;49.764;9.796;2022-08-19T01:04:09;30.47;;;22.23;;
5900;SDS011;2976;49.764;9.796;2022-08-19T01:06:38;30.47;;;21.70;;
5900;SDS011;2976;49.764;9.796;2022-08-19T01:09:06;30.20;;;20.93;;
5900;SDS011;2976;49.764;9.796;2022-08-19T01:11:33;29.00;;;21.20;;
5900;SDS011;2976;49.764;9.796;2022-08-19T01:14:01;33.80;;;22.43;;
5900;SDS011;2976;49.764;9.796;2022-08-19T01:16:27;29.83;;;20.53;;
5900;SDS011;2976;49.764;9.796;2022-08-19T01:18:54;33.70;;;21.63;;
5900;SDS011;2976;49.764;9.796;2022-08-19T01:21:35;33.87;;;21.50;;
5900;SDS011;2976;49.764;9.796;2022-08-19T01:24:06;30.00;;;22.70;;
5900;SDS011;2976;49.764;9.796;2022-08-19T01:26:37;31.80;;;20.00;;
5900;SDS011;2976;49.764;9.796;2022-08-19T01:29:06;33.83;;;22.13;;
5900;SDS011;2976;49.764;9.796;2022-08-19T01:31:32;27.57;;;20.47;;
5900;SDS011;2976;49.764;9.796;2022-08-19T01:33:58;28.40;;;19.90;;
5900;SDS011;2976;49.764;9.796;2022-08-19T01:36:33;31.43;;;21.20;;
5900;SDS011;2976;49.764;9.796;2022-08-19T01:39:08;32.63;;;19.30;;
5900;SDS011;2976;49.764;9.796;2022-08-19T01:41:36;26.93;;;20.10;;
5900;SDS011;2976;49.764;9.796;2022-08-19T01:44:04;26.20;;;17.57;;
5900;SDS011;2976;49.764;9.796;2022-08-19T01:46:30;25.47;;;18.70;;
5900;SDS011;2976;49.764;9.796;2022-08-19T01:48:57;30.80;;;19.40;;
5900;SDS011;2976;49.764;9.796;2022-08-19T01:51:23;29.40;;;20.03;;
5900;SDS011;2976;49.764;9.796;2022-08-19T01:53:49;29.83;;;21.60;;
5900;SDS011;2976;49.764;9.796;2022-08-19T01:56:16;32.60;;;21.77;;
5900;SDS011;2976;49.764;9.796;2022-08-19T01:58:45;29.40;;;21.90;;
5900;SDS011;2976;49.764;9.796;2022-08-19T02:01:16;29.77;;;21.70;;
5900;SDS011;2976;49.764;9.796;2022-08-19T02:03:42;33.33;;;22.50;;
5900;SDS011;2976;49.764;9.796;2022-08-19T02:06:08;27.93;;;20.47;;
5900;SDS011;2976;49.764;9.796;2022-08-19T02:08:34;29.90;;;20.07;;
5900;SDS011;2976;49.764;9.796;2022-08-19T02:11:01;30.70;;;20.90;;
5900;SDS011;2976;49.764;9.796;2022-08-19T02:13:27;33.03;;;20.10;;
5900;SDS011;2976;49.764;9.796;2022-08-19T02:15:53;32.20;;;21.53;;
5900;SDS011;2976;49.764;9.796;2022-08-19T02:18:18;29.03;;;20.13;;
5900;SDS011;2976;49.764;9.796;2022-08-19T02:20:44;31.97;;;21.97;;
5900;SDS011;2976;49.764;9.796;2022-08-19T02:23:12;27.40;;;20.83;;
5900;SDS011;2976;49.764;9.796;2022-08-19T02:25:38;32.83;;;20.87;;
5900;SDS011;2976;49.764;9.796;2022-08-19T02:28:04;26.63;;;19.37;;
5900;SDS011;2976;49.764;9.796;2022-08-19T02:30:30;24.17;;;17.70;;
5900;SDS011;2976;49.764;9.796;2022-08-19T02:32:55;27.00;;;18.90;;
5900;SDS011;2976;49.764;9.796;2022-08-19T02:35:21;30.63;;;19.17;;
5900;SDS011;2976;49.764;9.796;2022-08-19T02:37:47;26.63;;;19.87;;
5900;SDS011;2976;49.764;9.796;2022-08-19T02:40:32;27.13;;;20.20;;
5900;SDS011;2976;49.764;9.796;2022-08-19T02:43:01;28.10;;;19.90;;
5900;SDS011;2976;49.764;9.796;2022-08-19T02:45:32;30.43;;;19.97;;
5900;SDS011;2976;49.764;9.796;2022-08-19T02:47:59;30.37;;;20.50;;
5900;SDS011;2976;49.764;9.796;2022-08-19T02:50:24;29.63;;;20.20;;
5900;SDS011;2976;49.764;9.796;2022-08-19T02:52:50;28.90;;;19.80;;
5900;SDS011;2976;49.764;9.796;2022-08-19T02:55:16;24.73;;;17.87;;
5900;SDS011;2976;49.764;9.796;2022-08-19T02:57:41;22.67;;;15.87;;
5900;SDS011;2976;49.764;9.796;2022-08-19T03:00:07;27.17;;;18.80;;
5900;SDS011;2976;49.764;9.796;2022-08-19T03:02:37;25.60;;;18.27;;
5900;SDS011;2976;49.764;9.796;2022-08-19T03:05:04;34.83;;;19.33;;
5900;SDS011;2976;49.764;9.796;2022-08-19T03:07:32;28.23;;;19.80;;
5900;SDS011;2976;49.764;9.796;2022-08-19T03:09:57;26.10;;;19.20;;
5900;SDS011;2976;49.764;9.796;2022-08-19T03:12:23;28.97;;;19.23;;
5900;SDS011;2976;49.764;9.796;2022-08-19T03:14:48;26.40;;;19.80;;
5900;SDS011;2976;49.764;9.796;2022-08-19T03:17:14;34.13;;;19.40;;
5900;SDS011;2976;49.764;9.796;2022-08-19T03:19:40;30.00;;;21.00;;
5900;SDS011;2976;49.764;9.796;2022-08-19T03:22:05;33.73;;;21.50;;
5900;SDS011;2976;49.764;9.796;2022-08-19T03:24:31;26.37;;;19.37;;
5900;SDS011;2976;49.764;9.796;2022-08-19T03:26:57;29.03;;;20.83;;
5900;SDS011;2976;49.764;9.796;2022-08-19T03:29:24;26.17;;;19.33;;
5900;SDS011;2976;49.764;9.796;2022-08-19T03:31:54;25.20;;;19.97;;
5900;SDS011;2976;49.764;9.796;2022-08-19T03:34:23;24.23;;;19.20;;
5900;SDS011;2976;49.764;9.796;2022-08-19T03:36:52;24.73;;;18.67;;
5900;SDS011;2976;49.764;9.796;2022-08-19T03:39:19;29.53;;;19.70;;
5900;SDS011;2976;49.764;9.796;2022-08-19T03:41:45;35.70;;;20.63;;
5900;SDS011;2976;49.764;9.796;2022-08-19T03:44:16;26.30;;;18.03;;
5900;SDS011;2976;49.764;9.796;2022-08-19T03:46:46;26.00;;;19.67;;
5900;SDS011;2976;49.764;9.796;2022-08-19T03:49:14;25.60;;;18.70;;
5900;SDS011;2976;49.764;9.796;2022-08-19T03:51:40;28.23;;;19.43;;
5900;SDS011;2976;49.764;9.796;2022-08-19T03:54:08;28.73;;;20.13;;
5900;SDS011;2976;49.764;9.796;2022-08-19T03:56:36;27.60;;;20.70;;
5900;SDS011;2976;49.764;9.796;2022-08-19T03:59:03;30.07;;;20.07;;
5900;SDS011;2976;49.764;9.796;2022-08-19T04:01:30;31.53;;;21.50;;
5900;SDS011;2976;49.764;9.796;2022-08-19T04:03:56;27.17;;;20.17;;
5900;SDS011;2976;49.764;9.796;2022-08-19T04:06:26;28.70;;;20.07;;
5900;SDS011;2976;49.764;9.796;2022-08-19T04:08:57;29.40;;;20.40;;
5900;SDS011;2976;49.764;9.796;2022-08-19T04:11:25;31.13;;;20.77;;
5900;SDS011;2976;49.764;9.796;2022-08-19T04:13:54;31.90;;;22.03;;
5900;SDS011;2976;49.764;9.796;2022-08-19T04:16:21;28.17;;;20.53;;
5900;SDS011;2976;49.764;9.796;2022-08-19T04:18:48;30.83;;;20.30;;
5900;SDS011;2976;49.764;9.796;2022-08-19T04:21:15;32.50;;;22.13;;
5900;SDS011;2976;49.764;9.796;2022-08-19T04:23:42;33.27;;;22.10;;
5900;SDS011;2976;49.764;9.796;2022-08-19T04:26:11;26.67;;;19.37;;
5900;SDS011;2976;49.764;9.796;2022-08-19T04:28:43;24.67;;;18.37;;
5900;SDS011;2976;49.764;9.796;2022-08-19T04:31:13;28.30;;;18.80;;
5900;SDS011;2976;49.764;9.796;2022-08-19T04:33:40;27.27;;;19.10;;
5900;SDS011;2976;49.764;9.796;2022-08-19T04:36:06;27.90;;;19.43;;
5900;SDS011;2976;49.764;9.796;2022-08-19T04:38:32;29.43;;;21.70;;
5900;SDS011;2976;49.764;9.796;2022-08-19T04:40:58;31.70;;;22.37;;
5900;SDS011;2976;49.764;9.796;2022-08-19T04:43:42;26.63;;;19.63;;
5900;SDS011;2976;49.764;9.796;2022-08-19T04:46:13;26.83;;;19.23;;
5900;SDS011;2976;49.764;9.796;2022-08-19T04:48:39;27.80;;;21.23;;
5900;SDS011;2976;49.764;9.796;2022-08-19T04:51:07;31.33;;;20.37;;
5900;SDS011;2976;49.764;9.796;2022-08-19T04:53:36;29.70;;;20.03;;
5900;SDS011;2976;49.764;9.796;2022-08-19T04:56:04;23.10;;;17.60;;
5900;SDS011;2976;49.764;9.796;2022-08-19T04:58:35;24.87;;;19.00;;
5900;SDS011;2976;49.764;9.796;2022-08-19T05:01:02;28.17;;;19.23;;
5900;SDS011;2976;49.764;9.796;2022-08-19T05:03:29;25.30;;;18.07;;
5900;SDS011;2976;49.764;9.796;2022-08-19T05:05:59;24.00;;;16.70;;
5900;SDS011;2976;49.764;9.796;2022-08-19T05:08:32;25.73;;;17.93;;
5900;SDS011;2976;49.764;9.796;2022-08-19T05:10:59;25.53;;;18.70;;
5900;SDS011;2976;49.764;9.796;2022-08-19T05:13:25;21.57;;;17.07;;
5900;SDS011;2976;49.764;9.796;2022-08-19T05:15:58;22.20;;;16.57;;
5900;SDS011;2976;49.764;9.796;2022-08-19T05:18:24;27.30;;;19.17;;
5900;SDS011;2976;49.764;9.796;2022-08-19T05:21:13;21.93;;;17.53;;
5900;SDS011;2976;49.764;9.796;2022-08-19T05:23:59;21.77;;;17.40;;
5900;SDS011;2976;49.764;9.796;2022-08-19T05:26:25;24.10;;;17.97;;
5900;SDS011;2976;49.764;9.796;2022-08-19T05:28:51;25.47;;;18.43;;
5900;SDS011;2976;49.764;9.796;2022-08-19T05:31:18;24.30;;;18.43;;
5900;SDS011;2976;49.764;9.796;2022-08-19T05:33:43;24.53;;;17.10;;
5900;SDS011;2976;49.764;9.796;2022-08-19T05:36:09;23.97;;;17.23;;
5900;SDS011;2976;49.764;9.796;2022-08-19T05:38:35;25.10;;;17.93;;
5900;SDS011;2976;49.764;9.796;2022-08-19T05:41:01;24.47;;;18.43;;
5900;SDS011;2976;49.764;9.796;2022-08-19T05:43:33;23.97;;;17.97;;
5900;SDS011;2976;49.764;9.796;2022-08-19T05:45:59;24.30;;;18.40;;
5900;SDS011;2976;49.764;9.796;2022-08-19T05:48:24;21.43;;;17.23;;
5900;SDS011;2976;49.764;9.796;2022-08-19T05:50:51;23.70;;;17.77;;
5900;SDS011;2976;49.764;9.796;2022-08-19T05:53:17;20.90;;;16.23;;
5900;SDS011;2976;49.764;9.796;2022-08-19T05:55:43;25.83;;;17.43;;
5900;SDS011;2976;49.764;9.796;2022-08-19T05:58:08;22.07;;;17.10;;
5900;SDS011;2976;49.764;9.796;2022-08-19T06:00:35;24.57;;;16.63;;
5900;SDS011;2976;49.764;9.796;2022-08-19T06:03:02;21.23;;;16.77;;
5900;SDS011;2976;49.764;9.796;2022-08-19T06:05:31;22.70;;;16.33;;
5900;SDS011;2976;49.764;9.796;2022-08-19T06:07:57;22.03;;;16.90;;
5900;SDS011;2976;49.764;9.796;2022-08-19T06:10:23;24.07;;;16.30;;
5900;SDS011;2976;49.764;9.796;2022-08-19T06:12:51;16.73;;;14.77;;
5900;SDS011;2976;49.764;9.796;2022-08-19T06:15:17;24.30;;;17.50;;
5900;SDS011;2976;49.764;9.796;2022-08-19T06:17:42;21.27;;;15.53;;
5900;SDS011;2976;49.764;9.796;2022-08-19T06:20:12;21.17;;;15.73;;
5900;SDS011;2976;49.764;9.796;2022-08-19T06:22:40;25.60;;;17.80;;
5900;SDS011;2976;49.764;9.796;2022-08-19T06:25:08;20.37;;;16.20;;
5900;SDS011;2976;49.764;9.796;2022-08-19T06:27:34;21.30;;;16.03;;
5900;SDS011;2976;49.764;9.796;2022-08-19T06:30:00;20.77;;;15.63;;
5900;SDS011;2976;49.764;9.796;2022-08-19T06:32:26;24.97;;;14.80;;
5900;SDS011;2976;49.764;9.796;2022-08-19T06:34:52;20.83;;;15.83;;
5900;SDS011;2976;49.764;9.796;2022-08-19T06:37:17;20.03;;;14.90;;
5900;SDS011;2976;49.764;9.796;2022-08-19T06:39:43;20.83;;;14.00;;
5900;SDS011;2976;49.764;9.796;2022-08-19T06:42:09;20.80;;;14.50;;
5900;SDS011;2976;49.764;9.796;2022-08-19T06:44:38;17.00;;;12.93;;
5900;SDS011;2976;49.764;9.796;2022-08-19T06:47:06;19.47;;;14.20;;
5900;SDS011;2976;49.764;9.796;2022-08-19T06:49:33;20.80;;;14.97;;
5900;SDS011;2976;49.764;9.796;2022-08-19T06:52:00;20.27;;;13.67;;
5900;SDS011;2976;49.764;9.796;2022-08-19T06:54:26;17.23;;;14.53;;
5900;SDS011;2976;49.764;9.796;2022-08-19T06:56:54;17.70;;;13.50;;
5900;SDS011;2976;49.764;9.796;2022-08-19T06:59:21;18.80;;;13.87;;
5900;SDS011;2976;49.764;9.796;2022-08-19T07:01:53;23.10;;;14.60;;
5900;SDS011;2976;49.764;9.796;2022-08-19T07:04:24;22.77;;;14.77;;
5900;SDS011;2976;49.764;9.796;2022-08-19T07:06:58;19.87;;;13.27;;
5900;SDS011;2976;49.764;9.796;2022-08-19T07:09:31;16.50;;;13.07;;
5900;SDS011;2976;49.764;9.796;2022-08-19T07:11:56;19.53;;;15.53;;
5900;SDS011;2976;49.764;9.796;2022-08-19T07:14:23;21.33;;;14.37;;
5900;SDS011;2976;49.764;9.796;2022-08-19T07:16:51;21.30;;;14.63;;
5900;SDS011;2976;49.764;9.796;2022-08-19T07:19:19;17.87;;;13.53;;
5900;SDS011;2976;49.764;9.796;2022-08-19T07:21:47;19.03;;;14.17;;
5900;SDS011;2976;49.764;9.796;2022-08-19T07:24:14;22.37;;;15.70;;
5900;SDS011;2976;49.764;9.796;2022-08-19T07:26:41;23.17;;;14.50;;
5900;SDS011;2976;49.764;9.796;2022-08-19T07:29:08;19.00;;;14.90;;
5900;SDS011;2976;49.764;9.796;2022-08-19T07:31:34;22.33;;;15.03;;
5900;SDS011;2976;49.764;9.796;2022-08-19T07:34:02;19.37;;;14.50;;
5900;SDS011;2976;49.764;9.796;2022-08-19T07:36:33;21.20;;;15.30;;
5900;SDS011;2976;49.764;9.796;2022-08-19T07:39:04;18.87;;;14.30;;
5900;SDS011;2976;49.764;9.796;2022-08-19T07:41:32;16.80;;;15.00;;
5900;SDS011;2976;49.764;9.796;2022-08-19T07:43:59;17.00;;;13.30;;
5900;SDS011;2976;49.764;9.796;2022-08-19T07:46:28;16.83;;;13.77;;
5900;SDS011;2976;49.764;9.796;2022-08-19T07:48:57;19.27;;;13.27;;
5900;SDS011;2976;49.764;9.796;2022-08-19T07:51:23;16.83;;;13.30;;
5900;SDS011;2976;49.764;9.796;2022-08-19T07:53:49;18.67;;;13.87;;
5900;SDS011;2976;49.764;9.796;2022-08-19T07:56:16;16.23;;;14.20;;
5900;SDS011;2976;49.764;9.796;2022-08-19T07:58:43;15.50;;;13.50;;
5900;SDS011;2976;49.764;9.796;2022-08-19T08:01:12;14.17;;;12.63;;
5900;SDS011;2976;49.764;9.796;2022-08-19T08:03:40;18.20;;;13.40;;
5900;SDS011;2976;49.764;9.796;2022-08-19T08:06:24;16.33;;;13.60;;
5900;SDS011;2976;49.764;9.796;2022-08-19T08:09:09;14.70;;;11.73;;
5900;SDS011;2976;49.764;9.796;2022-08-19T08:11:50;17.20;;;11.80;;
5900;SDS011;2976;49.764;9.796;2022-08-19T08:14:20;21.50;;;12.37;;
5900;SDS011;2976;49.764;9.796;2022-08-19T08:16:48;13.77;;;10.90;;
5900;SDS011;2976;49.764;9.796;2022-08-19T08:19:16;16.13;;;12.23;;
5900;SDS011;2976;49.764;9.796;2022-08-19T08:21:48;17.33;;;12.40;;
5900;SDS011;2976;49.764;9.796;2022-08-19T08:24:14;13.30;;;11.53;;
5900;SDS011;2976;49.764;9.796;2022-08-19T08:26:40;18.93;;;10.87;;
5900;SDS011;2976;49.764;9.796;2022-08-19T08:29:08;20.17;;;11.83;;
5900;SDS011;2976;49.764;9.796;2022-08-19T08:31:37;17.10;;;12.40;;
5900;SDS011;2976;49.764;9.796;2022-08-19T08:34:03;12.30;;;11.10;;
5900;SDS011;2976;49.764;9.796;2022-08-19T08:36:29;14.70;;;11.13;;
5900;SDS011;2976;49.764;9.796;2022-08-19T08:38:58;15.57;;;12.93;;
5900;SDS011;2976;49.764;9.796;2022-08-19T08:43:55;15.83;;;12.73;;
5900;SDS011;2976;49.764;9.796;2022-08-19T08:46:35;13.57;;;10.03;;
5900;SDS011;2976;49.764;9.796;2022-08-19T08:49:16;14.33;;;11.37;;
5900;SDS011;2976;49.764;9.796;2022-08-19T08:52:02;17.13;;;11.73;;
5900;SDS011;2976;49.764;9.796;2022-08-19T08:54:35;15.47;;;11.27;;
5900;SDS011;2976;49.764;9.796;2022-08-19T08:57:07;13.40;;;11.87;;
5900;SDS011;2976;49.764;9.796;2022-08-19T08:59:40;14.37;;;10.80;;
5900;SDS011;2976;49.764;9.796;2022-08-19T09:02:08;14.73;;;11.43;;
5900;SDS011;2976;49.764;9.796;2022-08-19T09:04:35;12.30;;;11.03;;
5900;SDS011;2976;49.764;9.796;2022-08-19T09:09:40;17.03;;;12.47;;
5900;SDS011;2976;49.764;9.796;2022-08-19T09:12:10;15.17;;;10.90;;
5900;SDS011;2976;49.764;9.796;2022-08-19T09:15:06;17.50;;;11.67;;
5900;SDS011;2976;49.764;9.796;2022-08-19T09:17:34;12.03;;;10.77;;
5900;SDS011;2976;49.764;9.796;2022-08-19T09:20:06;14.03;;;11.27;;
5900;SDS011;2976;49.764;9.796;2022-08-19T09:22:34;14.77;;;11.10;;
5900;SDS011;2976;49.764;9.796;2022-08-19T09:25:00;19.10;;;10.83;;
5900;SDS011;2976;49.764;9.796;2022-08-19T09:27:26;14.47;;;10.40;;
5900;SDS011;2976;49.764;9.796;2022-08-19T09:29:53;12.70;;;9.20;;
5900;SDS011;2976;49.764;9.796;2022-08-19T09:32:20;10.87;;;9.80;;
5900;SDS011;2976;49.764;9.796;2022-08-19T09:34:47;11.43;;;9.70;;
5900;SDS011;2976;49.764;9.796;2022-08-19T09:37:12;12.53;;;8.70;;
5900;SDS011;2976;49.764;9.796;2022-08-19T09:39:39;14.70;;;8.23;;
5900;SDS011;2976;49.764;9.796;2022-08-19T09:42:09;9.97;;;8.97;;
5900;SDS011;2976;49.764;9.796;2022-08-19T09:44:40;19.60;;;9.20;;
5900;SDS011;2976;49.764;9.796;2022-08-19T09:47:06;13.53;;;7.87;;
5900;SDS011;2976;49.764;9.796;2022-08-19T09:49:33;10.90;;;7.90;;
5900;SDS011;2976;49.764;9.796;2022-08-19T09:51:59;10.80;;;6.60;;
5900;SDS011;2976;49.764;9.796;2022-08-19T09:54:25;5.90;;;5.13;;
5900;SDS011;2976;49.764;9.796;2022-08-19T09:56:55;10.03;;;6.17;;
5900;SDS011;2976;49.764;9.796;2022-08-19T09:59:23;11.40;;;6.10;;
5900;SDS011;2976;49.764;9.796;2022-08-19T10:01:49;6.30;;;5.37;;
5900;SDS011;2976;49.764;9.796;2022-08-19T10:04:16;5.47;;;4.97;;
5900;SDS011;2976;49.764;9.796;2022-08-19T10:06:42;5.37;;;4.80;;
5900;SDS011;2976;49.764;9.796;2022-08-19T10:09:08;5.77;;;3.90;;
5900;SDS011;2976;49.764;9.796;2022-08-19T10:11:36;4.37;;;3.63;;
5900;SDS011;2976;49.764;9.796;2022-08-19T10:14:04;4.83;;;3.40;;
5900;SDS011;2976;49.764;9.796;2022-08-19T10:16:33;4.90;;;4.37;;
5900;SDS011;2976;49.764;9.796;2022-08-19T10:19:00;7.47;;;3.73;;
5900;SDS011;2976;49.764;9.796;2022-08-19T10:21:27;4.80;;;3.07;;
5900;SDS011;2976;49.764;9.796;2022-08-19T10:23:56;3.90;;;3.10;;
5900;SDS011;2976;49.764;9.796;2022-08-19T10:26:26;4.93;;;4.07;;
5900;SDS011;2976;49.764;9.796;2022-08-19T10:28:53;3.80;;;3.50;;
5900;SDS011;2976;49.764;9.796;2022-08-19T10:31:21;7.07;;;3.57;;
5900;SDS011;2976;49.764;9.796;2022-08-19T10:33:48;5.83;;;3.40;;
5900;SDS011;2976;49.764;9.796;2022-08-19T10:36:17;4.10;;;3.67;;
5900;SDS011;2976;49.764;9.796;2022-08-19T10:38:45;7.73;;;3.33;;
5900;SDS011;2976;49.764;9.796;2022-08-19T10:41:15;5.50;;;3.60;;
5900;SDS011;2976;49.764;9.796;2022-08-19T10:43:43;7.13;;;3.60;;
5900;SDS011;2976;49.764;9.796;2022-08-19T10:46:10;4.07;;;3.70;;
5900;SDS011;2976;49.764;9.796;2022-08-19T10:48:38;4.10;;;3.50;;
5900;SDS011;2976;49.764;9.796;2022-08-19T10:51:05;3.57;;;3.23;;
5900;SDS011;2976;49.764;9.796;2022-08-19T10:53:49;3.90;;;3.60;;
5900;SDS011;2976;49.764;9.796;2022-08-19T10:56:15;4.90;;;3.37;;
5900;SDS011;2976;49.764;9.796;2022-08-19T10:59:00;3.80;;;3.50;;
5900;SDS011;2976;49.764;9.796;2022-08-19T11:01:28;3.67;;;3.20;;
5900;SDS011;2976;49.764;9.796;2022-08-19T11:03:54;3.20;;;3.00;;
5900;SDS011;2976;49.764;9.796;2022-08-19T11:06:22;4.10;;;3.10;;
5900;SDS011;2976;49.764;9.796;2022-08-19T11:08:50;4.10;;;2.83;;
5900;SDS011;2976;49.764;9.796;2022-08-19T11:11:16;3.17;;;2.93;;
5900;SDS011;2976;49.764;9.796;2022-08-19T11:13:42;5.80;;;3.40;;
5900;SDS011;2976;49.764;9.796;2022-08-19T11:16:11;5.23;;;3.30;;
5900;SDS011;2976;49.764;9.796;2022-08-19T11:18:40;2.70;;;2.60;;
5900;SDS011;2976;49.764;9.796;2022-08-19T11:21:16;2.83;;;2.63;;
5900;SDS011;2976;49.764;9.796;2022-08-19T11:23:45;2.93;;;2.73;;
5900;SDS011;2976;49.764;9.796;2022-08-19T11:26:13;4.20;;;2.97;;
5900;SDS011;2976;49.764;9.796;2022-08-19T11:28:39;3.40;;;3.10;;
5900;SDS011;2976;49.764;9.796;2022-08-19T11:31:12;6.40;;;3.40;;
5900;SDS011;2976;49.764;9.796;2022-08-19T11:33:39;4.50;;;3.13;;
5900;SDS011;2976;49.764;9.796;2022-08-19T11:36:05;4.10;;;3.20;;
5900;SDS011;2976;49.764;9.796;2022-08-19T11:38:32;3.07;;;2.87;;
5900;SDS011;2976;49.764;9.796;2022-08-19T11:41:01;3.27;;;2.97;;
5900;SDS011;2976;49.764;9.796;2022-08-19T11:43:30;8.47;;;2.80;;
5900;SDS011;2976;49.764;9.796;2022-08-19T11:45:56;3.00;;;2.80;;
5900;SDS011;2976;49.764;9.796;2022-08-19T11:48:22;2.57;;;2.37;;
5900;SDS011;2976;49.764;9.796;2022-08-19T11:50:49;2.73;;;2.53;;
5900;SDS011;2976;49.764;9.796;2022-08-19T11:53:16;3.27;;;2.97;;
5900;SDS011;2976;49.764;9.796;2022-08-19T11:55:44;2.50;;;2.33;;
5900;SDS011;2976;49.764;9.796;2022-08-19T11:58:11;2.47;;;2.27;;
5900;SDS011;2976;49.764;9.796;2022-08-19T12:00:37;3.00;;;2.07;;
5900;SDS011;2976;49.764;9.796;2022-08-19T12:03:04;2.83;;;2.03;;
5900;SDS011;2976;49.764;9.796;2022-08-19T12:05:30;2.80;;;2.50;;
5900;SDS011;2976;49.764;9.796;2022-08-19T12:07:55;3.43;;;2.60;;
5900;SDS011;2976;49.764;9.796;2022-08-19T12:10:21;2.50;;;2.30;;
5900;SDS011;2976;49.764;9.796;2022-08-19T12:12:47;4.47;;;2.97;;
5900;SDS011;2976;49.764;9.796;2022-08-19T12:15:13;2.53;;;2.17;;
5900;SDS011;2976;49.764;9.796;2022-08-19T12:17:40;2.10;;;1.80;;
5900;SDS011;2976;49.764;9.796;2022-08-19T12:20:06;7.20;;;2.20;;
5900;SDS011;2976;49.764;9.796;2022-08-19T12:22:34;3.00;;;2.10;;
5900;SDS011;2976;49.764;9.796;2022-08-19T12:25:00;3.67;;;2.60;;
5900;SDS011;2976;49.764;9.796;2022-08-19T12:27:26;4.13;;;2.13;;
5900;SDS011;2976;49.764;9.796;2022-08-19T12:29:51;4.13;;;2.20;;
5900;SDS011;2976;49.764;9.796;2022-08-19T12:32:17;3.20;;;2.20;;
5900;SDS011;2976;49.764;9.796;2022-08-19T12:34:43;2.17;;;2.07;;
5900;SDS011;2976;49.764;9.796;2022-08-19T12:37:09;2.90;;;2.57;;
5900;SDS011;2976;49.764;9.796;2022-08-19T12:39:39;2.20;;;2.00;;
5900;SDS011;2976;49.764;9.796;2022-08-19T12:42:07;2.07;;;1.93;;
5900;SDS011;2976;49.764;9.796;2022-08-19T12:44:34;1.93;;;1.83;;
5900;SDS011;2976;49.764;9.796;2022-08-19T12:47:01;2.53;;;2.33;;
5900;SDS011;2976;49.764;9.796;2022-08-19T12:49:28;2.30;;;2.10;;
5900;SDS011;2976;49.764;9.796;2022-08-19T12:51:56;2.30;;;2.10;;
5900;SDS011;2976;49.764;9.796;2022-08-19T12:54:22;4.17;;;2.33;;
5900;SDS011;2976;49.764;9.796;2022-08-19T12:56:48;6.70;;;2.37;;
5900;SDS011;2976;49.764;9.796;2022-08-19T12:59:14;2.97;;;2.57;;
5900;SDS011;2976;49.764;9.796;2022-08-19T13:01:42;3.23;;;2.47;;
5900;SDS011;2976;49.764;9.796;2022-08-19T13:04:09;3.10;;;2.13;;
5900;SDS011;2976;49.764;9.796;2022-08-19T13:06:35;3.10;;;2.03;;
5900;SDS011;2976;49.764;9.796;2022-08-19T13:09:02;1.93;;;1.80;;
5900;SDS011;2976;49.764;9.796;2022-08-19T13:11:28;2.40;;;2.20;;
5900;SDS011;2976;49.764;9.796;2022-08-19T13:13:57;2.33;;;2.23;;
5900;SDS011;2976;49.764;9.796;2022-08-19T13:16:23;2.13;;;2.03;;
5900;SDS011;2976;49.764;9.796;2022-08-19T13:18:49;2.80;;;2.10;;
5900;SDS011;2976;49.764;9.796;2022-08-19T13:21:16;3.00;;;2.17;;
5900;SDS011;2976;49.764;9.796;2022-08-19T13:23:44;2.13;;;1.93;;
5900;SDS011;2976;49.764;9.796;2022-08-19T13:26:11;1.53;;;1.40;;
5900;SDS011;2976;49.764;9.796;2022-08-19T13:28:38;1.73;;;1.50;;
5900;SDS011;2976;49.764;9.796;2022-08-19T13:31:24;3.43;;;1.53;;
5900;SDS011;2976;49.764;9.796;2022-08-19T13:34:10;2.20;;;1.60;;
5900;SDS011;2976;49.764;9.796;2022-08-19T13:36:36;1.50;;;1.50;;
5900;SDS011;2976;49.764;9.796;2022-08-19T13:39:03;2.10;;;1.70;;
5900;SDS011;2976;49.764;9.796;2022-08-19T13:41:29;1.73;;;1.63;;
5900;SDS011;2976;49.764;9.796;2022-08-19T13:43:56;4.40;;;1.80;;
5900;SDS011;2976;49.764;9.796;2022-08-19T13:46:22;3.07;;;1.73;;
5900;SDS011;2976;49.764;9.796;2022-08-19T13:48:47;2.43;;;2.20;;
5900;SDS011;2976;49.764;9.796;2022-08-19T13:51:14;5.93;;;1.90;;
5900;SDS011;2976;49.764;9.796;2022-08-19T13:53:41;1.60;;;1.50;;
5900;SDS011;2976;49.764;9.796;2022-08-19T13:56:08;5.03;;;1.60;;
5900;SDS011;2976;49.764;9.796;2022-08-19T13:58:36;3.33;;;1.77;;
5900;SDS011;2976;49.764;9.796;2022-08-19T14:01:03;5.03;;;1.97;;
5900;SDS011;2976;49.764;9.796;2022-08-19T14:03:31;1.80;;;1.70;;
5900;SDS011;2976;49.764;9.796;2022-08-19T14:05:57;1.93;;;1.83;;
5900;SDS011;2976;49.764;9.796;2022-08-19T14:08:23;1.97;;;1.87;;
5900;SDS011;2976;49.764;9.796;2022-08-19T14:10:49;2.20;;;2.10;;
5900;SDS011;2976;49.764;9.796;2022-08-19T14:13:16;3.40;;;1.80;;
5900;SDS011;2976;49.764;9.796;2022-08-19T14:15:44;3.07;;;1.97;;
5900;SDS011;2976;49.764;9.796;2022-08-19T14:18:10;1.90;;;1.80;;
5900;SDS011;2976;49.764;9.796;2022-08-19T14:20:36;2.23;;;1.90;;
5900;SDS011;2976;49.764;9.796;2022-08-19T14:23:02;3.80;;;1.97;;
5900;SDS011;2976;49.764;9.796;2022-08-19T14:25:30;2.10;;;1.67;;
5900;SDS011;2976;49.764;9.796;2022-08-19T14:27:56;1.70;;;1.60;;
5900;SDS011;2976;49.764;9.796;2022-08-19T14:30:24;2.20;;;1.53;;
5900;SDS011;2976;49.764;9.796;2022-08-19T14:32:56;3.37;;;2.00;;
5900;SDS011;2976;49.764;9.796;2022-08-19T14:35:23;3.73;;;1.73;;
5900;SDS011;2976;49.764;9.796;2022-08-19T14:37:49;2.07;;;1.67;;
5900;SDS011;2976;49.764;9.796;2022-08-19T14:40:19;1.70;;;1.60;;
5900;SDS011;2976;49.764;9.796;2022-08-19T14:42:51;2.17;;;2.07;;
5900;SDS011;2976;49.764;9.796;2022-08-19T14:45:24;6.23;;;1.67;;
5900;SDS011;2976;49.764;9.796;2022-08-19T14:47:51;2.00;;;1.73;;
5900;SDS011;2976;49.764;9.796;2022-08-19T14:50:17;2.33;;;2.13;;
5900;SDS011;2976;49.764;9.796;2022-08-19T14:52:43;2.20;;;2.00;;
5900;SDS011;2976;49.764;9.796;2022-08-19T14:55:10;3.00;;;2.10;;
5900;SDS011;2976;49.764;9.796;2022-08-19T14:57:35;11.53;;;1.97;;
5900;SDS011;2976;49.764;9.796;2022-08-19T15:00:01;3.17;;;1.63;;
5900;SDS011;2976;49.764;9.796;2022-08-19T15:02:28;1.67;;;1.57;;
5900;SDS011;2976;49.764;9.796;2022-08-19T15:04:54;1.80;;;1.70;;
5900;SDS011;2976;49.764;9.796;2022-08-19T15:07:20;3.43;;;1.83;;